sensor_id;sensor_type;location;lat;lon;timestamp;pressure;altitude;pressure_sealevel;temperature;humidity
21185;BME280;18176;49.502;11.754;2024-03-22T00:01:43;97609.88;;;11.34;62.94
21185;BME280;18176;49.502;11.754;2024-03-22T00:06:00;97607.88;;;11.29;62.74
21185;BME280;18176;49.502;11.754;2024-03-22T00:10:19;97576.53;;;11.20;62.63
21185;BME280;18176;49.502;11.754;2024-03-22T00:14:36;97611.94;;;11.32;62.44
21185;BME280;18176;49.502;11.754;2024-03-22T00:18:53;97585.38;;;11.14;62.51
21185;BME280;18176;49.502;11.754;2024-03-22T00:23:10;97587.50;;;11.23;62.24
21185;BME280;18176;49.502;11.754;2024-03-22T00:27:30;97572.13;;;11.14;62.25
21185;BME280;18176;49.502;11.754;2024-03-22T00:31:47;97578.72;;;11.05;62.31
21185;BME280;18176;49.502;11.754;2024-03-22T00:36:05;97581.28;;;10.93;62.66
21185;BME280;18176;49.502;11.754;2024-03-22T00:40:22;97590.28;;;10.86;63.11
21185;BME280;18176;49.502;11.754;2024-03-22T00:44:42;97581.81;;;10.71;62.83
21185;BME280;18176;49.502;11.754;2024-03-22T00:48:59;97576.63;;;10.57;63.45
21185;BME280;18176;49.502;11.754;2024-03-22T00:53:15;97565.59;;;10.61;62.49
21185;BME280;18176;49.502;11.754;2024-03-22T00:57:32;97568.44;;;10.59;63.12
21185;BME280;18176;49.502;11.754;2024-03-22T01:01:52;97561.19;;;10.48;62.64
21185;BME280;18176;49.502;11.754;2024-03-22T01:06:09;97573.00;;;10.45;62.86
21185;BME280;18176;49.502;11.754;2024-03-22T01:10:26;97574.72;;;10.33;62.62
21185;BME280;18176;49.502;11.754;2024-03-22T01:14:42;97566.19;;;10.31;62.66
21185;BME280;18176;49.502;11.754;2024-03-22T01:19:02;97550.78;;;10.15;62.58
21185;BME280;18176;49.502;11.754;2024-03-22T01:23:19;97562.81;;;10.11;62.90
21185;BME280;18176;49.502;11.754;2024-03-22T01:27:36;97558.53;;;10.10;63.24
21185;BME280;18176;49.502;11.754;2024-03-22T01:31:53;97546.34;;;10.03;63.24
21185;BME280;18176;49.502;11.754;2024-03-22T01:36:12;97529.91;;;9.81;63.27
21185;BME280;18176;49.502;11.754;2024-03-22T01:40:29;97548.81;;;9.91;63.34
21185;BME280;18176;49.502;11.754;2024-03-22T01:44:46;97542.13;;;9.88;63.58
21185;BME280;18176;49.502;11.754;2024-03-22T01:49:03;97544.00;;;9.75;63.57
21185;BME280;18176;49.502;11.754;2024-03-22T01:53:23;97542.00;;;9.64;63.80
21185;BME280;18176;49.502;11.754;2024-03-22T01:57:40;97526.94;;;9.71;63.30
21185;BME280;18176;49.502;11.754;2024-03-22T02:02:02;97536.31;;;9.67;63.54
21185;BME280;18176;49.502;11.754;2024-03-22T02:06:19;97537.09;;;9.67;63.21
21185;BME280;18176;49.502;11.754;2024-03-22T02:10:38;97520.44;;;9.67;62.81
21185;BME280;18176;49.502;11.754;2024-03-22T02:14:58;97505.03;;;9.51;62.86
21185;BME280;18176;49.502;11.754;2024-03-22T02:19:14;97515.19;;;9.47;63.26
21185;BME280;18176;49.502;11.754;2024-03-22T02:23:36;97526.53;;;9.61;62.57
21185;BME280;18176;49.502;11.754;2024-03-22T02:27:53;97501.78;;;9.42;62.58
21185;BME280;18176;49.502;11.754;2024-03-22T02:32:10;97511.19;;;9.32;62.95
21185;BME280;18176;49.502;11.754;2024-03-22T02:36:27;97492.06;;;9.30;63.14
21185;BME280;18176;49.502;11.754;2024-03-22T02:40:48;97486.00;;;9.23;62.99
21185;BME280;18176;49.502;11.754;2024-03-22T02:45:06;97490.38;;;9.48;62.44
21185;BME280;18176;49.502;11.754;2024-03-22T02:49:25;97489.78;;;9.40;62.64
21185;BME280;18176;49.502;11.754;2024-03-22T02:53:42;97491.22;;;9.36;62.72
21185;BME280;18176;49.502;11.754;2024-03-22T02:58:01;97489.63;;;9.35;62.98
21185;BME280;18176;49.502;11.754;2024-03-22T03:02:19;97486.78;;;9.30;63.00
21185;BME280;18176;49.502;11.754;2024-03-22T03:06:35;97475.41;;;9.23;63.34
21185;BME280;18176;49.502;11.754;2024-03-22T03:10:52;97480.44;;;9.37;63.14
21185;BME280;18176;49.502;11.754;2024-03-22T03:15:12;97460.97;;;9.25;63.23
21185;BME280;18176;49.502;11.754;2024-03-22T03:19:29;97446.59;;;9.01;63.85
21185;BME280;18176;49.502;11.754;2024-03-22T03:23:45;97461.75;;;9.26;63.90
21185;BME280;18176;49.502;11.754;2024-03-22T03:28:03;97429.44;;;9.17;63.79
21185;BME280;18176;49.502;11.754;2024-03-22T03:32:22;97448.13;;;9.29;63.79
21185;BME280;18176;49.502;11.754;2024-03-22T03:36:39;97452.16;;;9.38;63.53
21185;BME280;18176;49.502;11.754;2024-03-22T03:40:56;97453.34;;;9.42;63.20
21185;BME280;18176;49.502;11.754;2024-03-22T03:45:13;97450.09;;;9.46;63.16
21185;BME280;18176;49.502;11.754;2024-03-22T03:49:33;97464.72;;;9.55;62.73
21185;BME280;18176;49.502;11.754;2024-03-22T03:53:50;97455.91;;;9.68;62.29
21185;BME280;18176;49.502;11.754;2024-03-22T03:58:06;97463.16;;;9.41;62.95
21185;BME280;18176;49.502;11.754;2024-03-22T04:02:23;97455.97;;;9.55;62.67
21185;BME280;18176;49.502;11.754;2024-03-22T04:06:44;97474.00;;;9.71;62.36
21185;BME280;18176;49.502;11.754;2024-03-22T04:11:01;97458.91;;;9.78;62.05
21185;BME280;18176;49.502;11.754;2024-03-22T04:15:17;97449.00;;;9.67;62.44
21185;BME280;18176;49.502;11.754;2024-03-22T04:19:34;97440.53;;;9.45;62.45
21185;BME280;18176;49.502;11.754;2024-03-22T04:23:54;97443.63;;;9.36;62.72
21185;BME280;18176;49.502;11.754;2024-03-22T04:28:11;97446.94;;;9.18;63.13
21185;BME280;18176;49.502;11.754;2024-03-22T04:32:27;97441.31;;;8.95;63.42
21185;BME280;18176;49.502;11.754;2024-03-22T04:36:44;97450.88;;;8.89;63.64
21185;BME280;18176;49.502;11.754;2024-03-22T04:41:04;97443.34;;;8.99;63.01
21185;BME280;18176;49.502;11.754;2024-03-22T04:45:21;97449.63;;;8.98;62.41
21185;BME280;18176;49.502;11.754;2024-03-22T04:49:37;97431.81;;;8.74;62.96
21185;BME280;18176;49.502;11.754;2024-03-22T04:53:54;97443.81;;;8.70;63.03
21185;BME280;18176;49.502;11.754;2024-03-22T04:58:17;97445.44;;;8.58;63.55
21185;BME280;18176;49.502;11.754;2024-03-22T05:02:34;97434.84;;;8.45;63.07
21185;BME280;18176;49.502;11.754;2024-03-22T05:06:51;97439.97;;;8.40;63.22
21185;BME280;18176;49.502;11.754;2024-03-22T05:11:08;97437.09;;;8.61;62.68
21185;BME280;18176;49.502;11.754;2024-03-22T05:15:27;97444.84;;;8.56;62.34
21185;BME280;18176;49.502;11.754;2024-03-22T05:19:44;97400.34;;;8.27;62.55
21185;BME280;18176;49.502;11.754;2024-03-22T05:24:01;97439.13;;;8.46;62.71
21185;BME280;18176;49.502;11.754;2024-03-22T05:28:18;97446.66;;;8.49;63.14
21185;BME280;18176;49.502;11.754;2024-03-22T05:32:37;97449.06;;;8.64;62.79
21185;BME280;18176;49.502;11.754;2024-03-22T05:36:54;97436.47;;;8.59;62.99
21185;BME280;18176;49.502;11.754;2024-03-22T05:41:11;97425.50;;;8.62;63.12
21185;BME280;18176;49.502;11.754;2024-03-22T05:45:28;97433.03;;;8.65;63.33
21185;BME280;18176;49.502;11.754;2024-03-22T05:49:48;97412.88;;;8.77;63.03
21185;BME280;18176;49.502;11.754;2024-03-22T05:54:05;97415.31;;;8.85;63.41
21185;BME280;18176;49.502;11.754;2024-03-22T05:58:22;97420.28;;;9.19;63.46
21185;BME280;18176;49.502;11.754;2024-03-22T06:02:38;97412.72;;;9.36;63.58
21185;BME280;18176;49.502;11.754;2024-03-22T06:06:58;97395.53;;;9.52;62.83
21185;BME280;18176;49.502;11.754;2024-03-22T06:11:15;97404.97;;;9.72;63.33
21185;BME280;18176;49.502;11.754;2024-03-22T06:15:32;97392.94;;;9.83;62.80
21185;BME280;18176;49.502;11.754;2024-03-22T06:19:49;97375.38;;;9.88;62.73
21185;BME280;18176;49.502;11.754;2024-03-22T06:24:08;97404.19;;;10.03;62.27
21185;BME280;18176;49.502;11.754;2024-03-22T06:28:29;97398.13;;;9.96;61.80
21185;BME280;18176;49.502;11.754;2024-03-22T06:32:45;97390.19;;;9.96;62.64
21185;BME280;18176;49.502;11.754;2024-03-22T06:37:03;97388.44;;;10.15;62.23
21185;BME280;18176;49.502;11.754;2024-03-22T06:41:22;97383.53;;;10.18;62.31
21185;BME280;18176;49.502;11.754;2024-03-22T06:45:39;97392.72;;;10.40;62.42
21185;BME280;18176;49.502;11.754;2024-03-22T06:49:56;97389.53;;;10.56;62.50
21185;BME280;18176;49.502;11.754;2024-03-22T06:54:13;97384.75;;;10.65;60.59
21185;BME280;18176;49.502;11.754;2024-03-22T06:58:32;97384.97;;;10.64;60.00
21185;BME280;18176;49.502;11.754;2024-03-22T07:02:49;97377.31;;;11.10;61.13
21185;BME280;18176;49.502;11.754;2024-03-22T07:07:06;97382.19;;;11.61;62.16
21185;BME280;18176;49.502;11.754;2024-03-22T07:11:23;97373.75;;;11.82;59.59
21185;BME280;18176;49.502;11.754;2024-03-22T07:15:44;97365.16;;;12.10;59.22
21185;BME280;18176;49.502;11.754;2024-03-22T07:20:01;97369.78;;;12.26;59.47
21185;BME280;18176;49.502;11.754;2024-03-22T07:24:18;97363.09;;;12.35;58.31
21185;BME280;18176;49.502;11.754;2024-03-22T07:28:35;97363.81;;;12.42;56.82
21185;BME280;18176;49.502;11.754;2024-03-22T07:32:55;97355.56;;;12.78;58.77
21185;BME280;18176;49.502;11.754;2024-03-22T07:37:12;97356.91;;;13.27;60.34
21185;BME280;18176;49.502;11.754;2024-03-22T07:41:29;97366.66;;;13.50;58.67
21185;BME280;18176;49.502;11.754;2024-03-22T07:45:46;97367.47;;;13.78;57.08
21185;BME280;18176;49.502;11.754;2024-03-22T07:50:07;97345.84;;;13.91;59.97
21185;BME280;18176;49.502;11.754;2024-03-22T07:54:24;97340.28;;;13.93;54.54
21185;BME280;18176;49.502;11.754;2024-03-22T07:58:41;97359.06;;;14.31;56.69
21185;BME280;18176;49.502;11.754;2024-03-22T08:02:58;97362.31;;;14.50;54.81
21185;BME280;18176;49.502;11.754;2024-03-22T08:07:18;97344.81;;;14.26;53.72
21185;BME280;18176;49.502;11.754;2024-03-22T08:11:34;97341.91;;;14.60;53.70
21185;BME280;18176;49.502;11.754;2024-03-22T08:15:51;97333.16;;;14.82;53.14
21185;BME280;18176;49.502;11.754;2024-03-22T08:20:09;97338.88;;;15.12;52.44
21185;BME280;18176;49.502;11.754;2024-03-22T08:24:29;97340.38;;;15.46;51.70
21185;BME280;18176;49.502;11.754;2024-03-22T08:28:46;97341.00;;;15.53;51.50
21185;BME280;18176;49.502;11.754;2024-03-22T08:33:04;97340.22;;;15.84;50.37
21185;BME280;18176;49.502;11.754;2024-03-22T08:37:21;97338.31;;;16.06;50.28
21185;BME280;18176;49.502;11.754;2024-03-22T08:41:40;97328.75;;;16.15;50.12
21185;BME280;18176;49.502;11.754;2024-03-22T08:45:57;97320.34;;;16.34;49.25
21185;BME280;18176;49.502;11.754;2024-03-22T08:50:14;97320.44;;;16.49;49.64
21185;BME280;18176;49.502;11.754;2024-03-22T08:54:31;97322.00;;;16.45;49.89
21185;BME280;18176;49.502;11.754;2024-03-22T08:58:51;97323.88;;;16.76;49.90
21185;BME280;18176;49.502;11.754;2024-03-22T09:03:08;97314.59;;;17.04;49.07
21185;BME280;18176;49.502;11.754;2024-03-22T09:07:25;97316.66;;;16.81;49.42
21185;BME280;18176;49.502;11.754;2024-03-22T09:11:42;97303.53;;;16.80;49.31
21185;BME280;18176;49.502;11.754;2024-03-22T09:16:01;97293.81;;;16.64;49.63
21185;BME280;18176;49.502;11.754;2024-03-22T09:20:19;97275.84;;;17.16;49.16
21185;BME280;18176;49.502;11.754;2024-03-22T09:24:36;97315.13;;;17.68;48.12
21185;BME280;18176;49.502;11.754;2024-03-22T09:28:53;97300.16;;;18.52;46.25
21185;BME280;18176;49.502;11.754;2024-03-22T09:33:13;97307.25;;;19.02;45.69
21185;BME280;18176;49.502;11.754;2024-03-22T09:37:30;97259.03;;;19.80;44.69
21185;BME280;18176;49.502;11.754;2024-03-22T09:41:47;97286.41;;;20.25;42.80
21185;BME280;18176;49.502;11.754;2024-03-22T09:46:07;97275.19;;;20.13;43.55
21185;BME280;18176;49.502;11.754;2024-03-22T09:50:28;97242.06;;;19.84;43.37
21185;BME280;18176;49.502;11.754;2024-03-22T09:54:46;97265.97;;;19.52;44.61
21185;BME280;18176;49.502;11.754;2024-03-22T09:59:03;97250.31;;;19.05;45.22
21185;BME280;18176;49.502;11.754;2024-03-22T10:03:20;97244.81;;;18.71;46.49
21185;BME280;18176;49.502;11.754;2024-03-22T10:07:41;97238.75;;;20.26;45.17
21185;BME280;18176;49.502;11.754;2024-03-22T10:11:58;97218.75;;;20.61;42.16
21185;BME280;18176;49.502;11.754;2024-03-22T10:16:16;97225.09;;;22.24;40.56
21185;BME280;18176;49.502;11.754;2024-03-22T10:20:35;97178.81;;;22.44;39.24
21185;BME280;18176;49.502;11.754;2024-03-22T10:24:55;97214.72;;;23.84;37.10
21185;BME280;18176;49.502;11.754;2024-03-22T10:29:12;97211.75;;;24.38;36.23
21185;BME280;18176;49.502;11.754;2024-03-22T10:33:29;97202.16;;;26.31;35.29
21185;BME280;18176;49.502;11.754;2024-03-22T10:37:47;97185.91;;;26.14;34.00
21185;BME280;18176;49.502;11.754;2024-03-22T10:42:08;97171.56;;;25.45;33.96
21185;BME280;18176;49.502;11.754;2024-03-22T10:46:30;97176.00;;;24.59;35.19
21185;BME280;18176;49.502;11.754;2024-03-22T10:50:48;97162.38;;;24.81;34.43
21185;BME280;18176;49.502;11.754;2024-03-22T10:55:12;97148.41;;;25.82;33.80
21185;BME280;18176;49.502;11.754;2024-03-22T10:59:36;97151.28;;;25.76;32.99
21185;BME280;18176;49.502;11.754;2024-03-22T11:04:03;97138.13;;;26.88;32.02
21185;BME280;18176;49.502;11.754;2024-03-22T11:08:24;97136.91;;;27.06;32.38
21185;BME280;18176;49.502;11.754;2024-03-22T11:12:41;97128.41;;;27.49;31.88
21185;BME280;18176;49.502;11.754;2024-03-22T11:17:01;97114.41;;;26.68;29.14
21185;BME280;18176;49.502;11.754;2024-03-22T11:21:18;97111.31;;;26.78;28.26
21185;BME280;18176;49.502;11.754;2024-03-22T11:25:35;97104.50;;;24.94;26.75
21185;BME280;18176;49.502;11.754;2024-03-22T11:29:52;97105.97;;;25.00;26.99
21185;BME280;18176;49.502;11.754;2024-03-22T11:34:12;97093.34;;;24.30;27.95
21185;BME280;18176;49.502;11.754;2024-03-22T11:38:29;97089.44;;;24.54;27.04
21185;BME280;18176;49.502;11.754;2024-03-22T11:42:51;97070.22;;;23.19;25.34
21185;BME280;18176;49.502;11.754;2024-03-22T11:47:09;97060.78;;;23.30;26.62
21185;BME280;18176;49.502;11.754;2024-03-22T11:51:28;97073.38;;;24.18;25.13
21185;BME280;18176;49.502;11.754;2024-03-22T11:55:45;97062.38;;;23.84;25.59
21185;BME280;18176;49.502;11.754;2024-03-22T12:00:04;97051.84;;;23.73;26.26
21185;BME280;18176;49.502;11.754;2024-03-22T12:04:28;97043.13;;;24.24;26.84
21185;BME280;18176;49.502;11.754;2024-03-22T12:08:47;97014.53;;;24.66;26.33
21185;BME280;18176;49.502;11.754;2024-03-22T12:13:05;97021.06;;;26.35;25.45
21185;BME280;18176;49.502;11.754;2024-03-22T12:17:21;96994.16;;;27.25;24.78
21185;BME280;18176;49.502;11.754;2024-03-22T12:21:38;96999.03;;;26.28;25.83
21185;BME280;18176;49.502;11.754;2024-03-22T12:25:58;96981.66;;;26.50;25.56
21185;BME280;18176;49.502;11.754;2024-03-22T12:30:15;96985.25;;;27.81;24.61
21185;BME280;18176;49.502;11.754;2024-03-22T12:34:32;96977.09;;;28.05;24.67
21185;BME280;18176;49.502;11.754;2024-03-22T12:38:49;96969.19;;;28.64;23.88
21185;BME280;18176;49.502;11.754;2024-03-22T12:43:10;96980.88;;;28.77;24.18
21185;BME280;18176;49.502;11.754;2024-03-22T12:47:27;96969.94;;;29.44;23.56
21185;BME280;18176;49.502;11.754;2024-03-22T12:51:44;96968.72;;;28.74;23.83
21185;BME280;18176;49.502;11.754;2024-03-22T12:56:03;96957.88;;;28.90;23.95
21185;BME280;18176;49.502;11.754;2024-03-22T13:00:23;96948.84;;;29.45;23.64
21185;BME280;18176;49.502;11.754;2024-03-22T13:04:40;96936.56;;;31.66;21.91
21185;BME280;18176;49.502;11.754;2024-03-22T13:08:56;96928.50;;;32.52;21.81
21185;BME280;18176;49.502;11.754;2024-03-22T13:13:14;96924.16;;;33.47;20.16
21185;BME280;18176;49.502;11.754;2024-03-22T13:17:34;96907.09;;;34.94;20.23
21185;BME280;18176;49.502;11.754;2024-03-22T13:21:50;96898.53;;;35.20;19.00
21185;BME280;18176;49.502;11.754;2024-03-22T13:26:07;96899.59;;;34.91;18.88
21185;BME280;18176;49.502;11.754;2024-03-22T13:30:25;96875.44;;;33.44;20.36
21185;BME280;18176;49.502;11.754;2024-03-22T13:34:44;96869.75;;;34.18;19.94
21185;BME280;18176;49.502;11.754;2024-03-22T13:39:01;96861.22;;;32.62;19.70
21185;BME280;18176;49.502;11.754;2024-03-22T13:43:18;96858.84;;;29.64;22.68
21185;BME280;18176;49.502;11.754;2024-03-22T13:47:35;96853.66;;;28.29;24.25
21185;BME280;18176;49.502;11.754;2024-03-22T13:51:57;96838.97;;;27.81;24.94
21185;BME280;18176;49.502;11.754;2024-03-22T13:56:15;96837.06;;;27.58;25.03
21185;BME280;18176;49.502;11.754;2024-03-22T14:00:32;96837.06;;;27.58;25.46
21185;BME280;18176;49.502;11.754;2024-03-22T14:04:49;96821.06;;;27.56;24.88
21185;BME280;18176;49.502;11.754;2024-03-22T14:09:09;96834.13;;;28.27;23.99
21185;BME280;18176;49.502;11.754;2024-03-22T14:13:26;96827.94;;;26.93;24.40
21185;BME280;18176;49.502;11.754;2024-03-22T14:17:43;96822.53;;;27.54;24.04
21185;BME280;18176;49.502;11.754;2024-03-22T14:22:01;96814.50;;;26.76;24.80
21185;BME280;18176;49.502;11.754;2024-03-22T14:26:20;96811.09;;;26.46;24.63
21185;BME280;18176;49.502;11.754;2024-03-22T14:30:37;96798.63;;;25.04;26.30
21185;BME280;18176;49.502;11.754;2024-03-22T14:34:55;96787.72;;;25.42;24.63
21185;BME280;18176;49.502;11.754;2024-03-22T14:39:12;96793.13;;;24.84;24.17
21185;BME280;18176;49.502;11.754;2024-03-22T14:43:31;96792.56;;;24.99;24.47
21185;BME280;18176;49.502;11.754;2024-03-22T14:47:49;96773.25;;;25.09;24.45
21185;BME280;18176;49.502;11.754;2024-03-22T14:52:06;96790.34;;;24.37;25.32
21185;BME280;18176;49.502;11.754;2024-03-22T14:56:23;96772.81;;;23.75;26.24
21185;BME280;18176;49.502;11.754;2024-03-22T15:00:54;96777.28;;;23.88;26.91
21185;BME280;18176;49.502;11.754;2024-03-22T15:05:11;96782.69;;;23.71;27.00
21185;BME280;18176;49.502;11.754;2024-03-22T15:09:28;96779.94;;;23.37;27.86
21185;BME280;18176;49.502;11.754;2024-03-22T15:13:45;96762.59;;;22.98;28.31
21185;BME280;18176;49.502;11.754;2024-03-22T15:18:05;96776.19;;;22.76;29.60
21185;BME280;18176;49.502;11.754;2024-03-22T15:22:23;96771.69;;;22.41;29.93
21185;BME280;18176;49.502;11.754;2024-03-22T15:26:39;96752.16;;;22.66;30.08
21185;BME280;18176;49.502;11.754;2024-03-22T15:30:56;96746.38;;;22.59;29.96
21185;BME280;18176;49.502;11.754;2024-03-22T15:35:36;96758.66;;;22.43;30.96
21185;BME280;18176;49.502;11.754;2024-03-22T15:39:53;96749.38;;;22.27;31.31
21185;BME280;18176;49.502;11.754;2024-03-22T15:44:10;96739.28;;;22.41;30.68
21185;BME280;18176;49.502;11.754;2024-03-22T15:48:27;96735.81;;;22.71;30.39
21185;BME280;18176;49.502;11.754;2024-03-22T15:52:46;96736.91;;;22.70;30.48
21185;BME280;18176;49.502;11.754;2024-03-22T15:57:04;96730.28;;;22.76;30.10
21185;BME280;18176;49.502;11.754;2024-03-22T16:01:21;96737.06;;;23.04;30.01
21185;BME280;18176;49.502;11.754;2024-03-22T16:05:50;96720.88;;;22.65;30.75
21185;BME280;18176;49.502;11.754;2024-03-22T16:10:11;96727.44;;;22.81;30.73
21185;BME280;18176;49.502;11.754;2024-03-22T16:14:28;96724.41;;;22.74;30.68
21185;BME280;18176;49.502;11.754;2024-03-22T16:18:45;96710.44;;;22.50;31.49
21185;BME280;18176;49.502;11.754;2024-03-22T16:23:02;96712.19;;;22.55;31.53
21185;BME280;18176;49.502;11.754;2024-03-22T16:27:22;96708.31;;;22.69;31.11
21185;BME280;18176;49.502;11.754;2024-03-22T16:31:39;96683.25;;;22.47;31.51
21185;BME280;18176;49.502;11.754;2024-03-22T16:35:56;96708.66;;;22.46;31.37
21185;BME280;18176;49.502;11.754;2024-03-22T16:40:13;96702.28;;;22.11;31.96
21185;BME280;18176;49.502;11.754;2024-03-22T16:44:33;96700.16;;;22.30;31.85
21185;BME280;18176;49.502;11.754;2024-03-22T16:48:50;96701.50;;;22.41;31.91
21185;BME280;18176;49.502;11.754;2024-03-22T16:53:07;96690.94;;;22.31;32.11
21185;BME280;18176;49.502;11.754;2024-03-22T16:57:24;96683.44;;;22.19;32.32
21185;BME280;18176;49.502;11.754;2024-03-22T17:01:44;96684.06;;;22.16;33.12
21185;BME280;18176;49.502;11.754;2024-03-22T17:06:01;96675.16;;;22.16;32.47
21185;BME280;18176;49.502;11.754;2024-03-22T17:10:17;96676.25;;;22.15;32.58
21185;BME280;18176;49.502;11.754;2024-03-22T17:14:34;96654.09;;;21.96;33.50
21185;BME280;18176;49.502;11.754;2024-03-22T17:18:54;96666.63;;;21.92;34.43
21185;BME280;18176;49.502;11.754;2024-03-22T17:23:10;96665.50;;;21.71;34.89
21185;BME280;18176;49.502;11.754;2024-03-22T17:27:27;96667.97;;;22.03;36.37
21185;BME280;18176;49.502;11.754;2024-03-22T17:31:44;96665.69;;;22.27;35.97
21185;BME280;18176;49.502;11.754;2024-03-22T17:36:05;96665.91;;;22.39;35.40
21185;BME280;18176;49.502;11.754;2024-03-22T17:40:21;96658.88;;;22.60;34.88
21185;BME280;18176;49.502;11.754;2024-03-22T17:44:39;96655.91;;;22.40;34.55
21185;BME280;18176;49.502;11.754;2024-03-22T17:48:56;96661.75;;;22.33;35.11
21185;BME280;18176;49.502;11.754;2024-03-22T17:53:15;96662.47;;;22.16;35.26
21185;BME280;18176;49.502;11.754;2024-03-22T17:57:33;96657.91;;;21.73;36.16
21185;BME280;18176;49.502;11.754;2024-03-22T18:01:50;96655.91;;;21.64;37.85
21185;BME280;18176;49.502;11.754;2024-03-22T18:06:07;96631.34;;;21.22;39.01
21185;BME280;18176;49.502;11.754;2024-03-22T18:10:27;96652.31;;;20.97;40.64
21185;BME280;18176;49.502;11.754;2024-03-22T18:14:44;96638.19;;;20.92;41.92
21185;BME280;18176;49.502;11.754;2024-03-22T18:19:01;96643.78;;;20.82;42.23
21185;BME280;18176;49.502;11.754;2024-03-22T18:23:18;96630.66;;;20.53;44.63
21185;BME280;18176;49.502;11.754;2024-03-22T18:27:38;96621.69;;;20.31;45.60
21185;BME280;18176;49.502;11.754;2024-03-22T18:31:55;96617.94;;;19.99;45.42
21185;BME280;18176;49.502;11.754;2024-03-22T18:36:11;96615.25;;;19.99;44.78
21185;BME280;18176;49.502;11.754;2024-03-22T18:40:28;96614.13;;;19.87;46.18
21185;BME280;18176;49.502;11.754;2024-03-22T18:44:48;96621.41;;;19.86;45.66
21185;BME280;18176;49.502;11.754;2024-03-22T18:49:05;96606.28;;;20.04;45.72
21185;BME280;18176;49.502;11.754;2024-03-22T18:53:22;96602.91;;;19.98;45.13
21185;BME280;18176;49.502;11.754;2024-03-22T18:57:39;96606.09;;;20.00;45.01
21185;BME280;18176;49.502;11.754;2024-03-22T19:01:58;96605.47;;;20.03;45.07
21185;BME280;18176;49.502;11.754;2024-03-22T19:06:15;96609.88;;;19.99;45.39
21185;BME280;18176;49.502;11.754;2024-03-22T19:10:32;96603.28;;;20.05;45.12
21185;BME280;18176;49.502;11.754;2024-03-22T19:14:49;96612.63;;;19.94;46.06
21185;BME280;18176;49.502;11.754;2024-03-22T19:19:08;96615.69;;;19.74;46.67
21185;BME280;18176;49.502;11.754;2024-03-22T19:23:25;96603.75;;;19.48;47.02
21185;BME280;18176;49.502;11.754;2024-03-22T19:27:43;96605.00;;;19.55;46.78
21185;BME280;18176;49.502;11.754;2024-03-22T19:32:00;96591.00;;;19.40;47.18
21185;BME280;18176;49.502;11.754;2024-03-22T19:36:19;96557.97;;;19.39;46.81
21185;BME280;18176;49.502;11.754;2024-03-22T19:40:37;96579.78;;;19.38;46.90
21185;BME280;18176;49.502;11.754;2024-03-22T19:44:54;96585.25;;;19.28;46.86
21185;BME280;18176;49.502;11.754;2024-03-22T19:49:11;96567.91;;;19.20;47.65
21185;BME280;18176;49.502;11.754;2024-03-22T19:53:30;96565.03;;;19.17;47.29
21185;BME280;18176;49.502;11.754;2024-03-22T19:57:47;96556.53;;;19.28;47.32
21185;BME280;18176;49.502;11.754;2024-03-22T20:02:04;96564.59;;;19.10;48.15
21185;BME280;18176;49.502;11.754;2024-03-22T20:06:21;96556.91;;;19.22;47.66
21185;BME280;18176;49.502;11.754;2024-03-22T20:10:41;96554.19;;;19.40;47.18
21185;BME280;18176;49.502;11.754;2024-03-22T20:14:57;96541.03;;;19.39;47.44
21185;BME280;18176;49.502;11.754;2024-03-22T20:19:14;96541.59;;;19.22;47.68
21185;BME280;18176;49.502;11.754;2024-03-22T20:23:31;96537.81;;;19.05;48.08
21185;BME280;18176;49.502;11.754;2024-03-22T20:27:50;96530.38;;;19.02;48.16
21185;BME280;18176;49.502;11.754;2024-03-22T20:32:08;96525.00;;;19.02;47.44
21185;BME280;18176;49.502;11.754;2024-03-22T20:36:25;96526.59;;;19.03;47.18
